createdAt,value
2022-09-12T00:01:22.393Z,99.90
2022-09-12T00:03:52.669Z,99.90
2022-09-12T00:06:26.423Z,99.90
2022-09-12T00:08:58.545Z,99.90
2022-09-12T00:11:26.581Z,99.90
2022-09-12T00:14:00.261Z,99.90
2022-09-12T00:16:29.120Z,99.90
2022-09-12T00:18:55.946Z,99.90
2022-09-12T00:21:23.463Z,99.90
2022-09-12T00:23:50.790Z,99.90
2022-09-12T00:26:19.177Z,99.90
2022-09-12T00:28:46.497Z,99.90
2022-09-12T00:31:20.468Z,99.90
2022-09-12T00:33:47.579Z,99.90
2022-09-12T00:36:18.121Z,99.90
2022-09-12T00:38:46.068Z,99.90
2022-09-12T00:41:26.395Z,99.90
2022-09-12T00:44:01.371Z,99.90
2022-09-12T00:46:41.950Z,99.90
2022-09-12T00:49:26.525Z,99.90
2022-09-12T00:52:10.640Z,99.90
2022-09-12T00:54:52.971Z,99.90
2022-09-12T00:57:22.426Z,99.90
2022-09-12T01:00:20.416Z,99.90
2022-09-12T01:02:51.788Z,99.90
2022-09-12T01:05:18.979Z,99.90
2022-09-12T01:07:48.624Z,99.90
2022-09-12T01:10:15.838Z,99.90
2022-09-12T01:12:44.194Z,99.90
2022-09-12T01:15:11.828Z,99.90
2022-09-12T01:18:09.015Z,99.90
2022-09-12T01:20:46.124Z,99.90
2022-09-12T01:23:12.937Z,99.90
2022-09-12T01:26:03.262Z,99.90
2022-09-12T01:28:29.869Z,99.90
2022-09-12T01:31:25.465Z,99.90
2022-09-12T01:34:14.162Z,99.90
2022-09-12T01:36:51.327Z,99.90
2022-09-12T01:39:32.497Z,99.90
2022-09-12T01:42:16.867Z,99.90
2022-09-12T01:44:57.423Z,99.90
2022-09-12T01:47:39.171Z,99.90
2022-09-12T01:50:16.246Z,99.90
2022-09-12T01:52:52.179Z,99.90
2022-09-12T01:55:56.956Z,99.90
2022-09-12T01:58:29.390Z,99.90
2022-09-12T02:01:03.517Z,99.90
2022-09-12T02:03:44.569Z,99.90
2022-09-12T02:06:44.432Z,99.90
2022-09-12T02:09:32.100Z,99.90
2022-09-12T02:12:01.558Z,99.90
2022-09-12T02:14:42.610Z,99.90
2022-09-12T02:17:16.687Z,99.90
2022-09-12T02:19:58.341Z,99.90
2022-09-12T02:22:29.349Z,99.90
2022-09-12T02:24:59.750Z,99.90
2022-09-12T02:27:37.749Z,99.90
2022-09-12T02:30:06.532Z,99.90
2022-09-12T02:32:38.175Z,99.90
2022-09-12T02:35:21.457Z,99.90
2022-09-12T02:38:07.391Z,99.90
2022-09-12T02:40:35.706Z,99.90
2022-09-12T02:43:04.649Z,99.90
2022-09-12T02:45:34.379Z,99.90
2022-09-12T02:48:13.615Z,99.90
2022-09-12T02:50:41.296Z,99.90
2022-09-12T02:53:09.297Z,99.90
2022-09-12T02:55:38.522Z,99.90
2022-09-12T02:58:08.689Z,99.90
2022-09-12T03:00:46.729Z,99.90
2022-09-12T03:03:22.303Z,99.90
2022-09-12T03:05:48.959Z,99.90
2022-09-12T03:09:01.458Z,99.90
2022-09-12T03:12:11.906Z,99.90
2022-09-12T03:15:10.874Z,99.90
2022-09-12T03:17:44.024Z,99.90
2022-09-12T03:20:16.891Z,99.90
2022-09-12T03:22:54.641Z,99.90
2022-09-12T03:25:23.861Z,99.90
2022-09-12T03:28:06.267Z,99.90
2022-09-12T03:30:39.488Z,99.90
2022-09-12T03:33:06.430Z,99.90
2022-09-12T03:35:33.158Z,99.90
2022-09-12T03:37:59.830Z,99.90
2022-09-12T03:40:26.731Z,99.90
2022-09-12T03:42:53.765Z,99.90
2022-09-12T03:45:20.588Z,99.90
2022-09-12T03:47:47.290Z,99.90
2022-09-12T03:50:14.103Z,99.90
2022-09-12T03:52:40.749Z,99.90
2022-09-12T03:55:07.888Z,99.90
2022-09-12T03:57:34.569Z,99.90
2022-09-12T04:00:02.135Z,99.90
2022-09-12T04:02:29.274Z,99.90
2022-09-12T04:04:55.974Z,99.90
2022-09-12T04:07:22.718Z,99.90
2022-09-12T04:09:49.569Z,99.90
2022-09-12T04:12:16.414Z,99.90
2022-09-12T04:14:43.134Z,99.90
2022-09-12T04:17:09.835Z,99.90
2022-09-12T04:19:36.595Z,99.90
2022-09-12T04:22:04.851Z,99.90
2022-09-12T04:24:31.577Z,99.90
2022-09-12T04:26:58.647Z,99.90
2022-09-12T04:29:25.396Z,99.90
2022-09-12T04:31:52.060Z,99.90
2022-09-12T04:34:18.802Z,99.90
2022-09-12T04:36:45.482Z,99.90
2022-09-12T04:39:12.536Z,99.90
2022-09-12T04:41:42.032Z,99.90
2022-09-12T04:44:12.688Z,99.90
2022-09-12T04:46:44.992Z,99.90
2022-09-12T04:49:13.199Z,99.90
2022-09-12T04:51:41.905Z,99.90
2022-09-12T04:54:16.327Z,99.90
2022-09-12T04:56:45.336Z,99.90
2022-09-12T04:59:13.838Z,99.90
2022-09-12T05:01:40.543Z,99.90
2022-09-12T05:04:07.834Z,99.90
2022-09-12T05:06:37.222Z,99.90
2022-09-12T05:09:06.095Z,99.90
2022-09-12T05:12:02.663Z,99.90
2022-09-12T05:14:22.828Z,99.90
2022-09-12T05:16:50.010Z,99.90
2022-09-12T05:19:17.189Z,99.90
2022-09-12T05:21:43.898Z,99.90
2022-09-12T05:24:11.255Z,99.90
2022-09-12T05:26:38.263Z,99.90
2022-09-12T05:29:07.025Z,99.90
2022-09-12T05:31:34.700Z,99.90
2022-09-12T05:34:01.768Z,99.90
2022-09-12T05:36:31.193Z,99.90
2022-09-12T05:38:59.873Z,99.90
2022-09-12T05:41:31.074Z,99.90
2022-09-12T05:44:00.387Z,99.90
2022-09-12T05:46:35.404Z,99.90
2022-09-12T05:49:07.226Z,99.90
2022-09-12T05:51:38.001Z,99.90
2022-09-12T05:54:06.002Z,99.90
2022-09-12T05:56:34.964Z,99.90
2022-09-12T05:59:13.115Z,99.90
2022-09-12T06:01:40.395Z,99.90
2022-09-12T06:04:07.985Z,99.90
2022-09-12T06:06:41.785Z,99.90
2022-09-12T06:09:09.210Z,99.90
2022-09-12T06:11:37.388Z,99.90
2022-09-12T06:14:04.667Z,99.90
2022-09-12T06:16:33.376Z,99.90
2022-09-12T06:19:03.422Z,99.90
2022-09-12T06:21:31.341Z,99.90
2022-09-12T06:24:01.416Z,99.90
2022-09-12T06:26:29.268Z,99.90
2022-09-12T06:28:57.893Z,99.90
2022-09-12T06:31:28.796Z,99.90
2022-09-12T06:33:57.403Z,99.90
2022-09-12T06:36:26.792Z,99.90
2022-09-12T06:39:02.661Z,99.90
2022-09-12T06:41:31.266Z,99.90
2022-09-12T06:43:58.651Z,99.90
2022-09-12T06:46:26.439Z,99.90
2022-09-12T06:48:55.476Z,99.90
2022-09-12T06:51:22.266Z,99.90
2022-09-12T06:53:50.022Z,99.90
2022-09-12T06:56:19.754Z,99.90
2022-09-12T06:58:48.022Z,99.90
2022-09-12T07:01:26.692Z,99.90
2022-09-12T07:03:55.917Z,99.90
2022-09-12T07:06:29.783Z,99.90
2022-09-12T07:08:58.647Z,99.90
2022-09-12T07:11:28.251Z,99.90
2022-09-12T07:13:56.539Z,99.90
2022-09-12T07:16:23.866Z,99.90
2022-09-12T07:18:52.496Z,99.90
2022-09-12T07:21:19.731Z,99.90
2022-09-12T07:23:47.498Z,99.90
2022-09-12T07:26:16.284Z,99.90
2022-09-12T07:28:43.900Z,99.90
2022-09-12T07:31:13.947Z,99.90
2022-09-12T07:33:41.776Z,99.90
2022-09-12T07:36:16.356Z,99.90
2022-09-12T07:38:44.004Z,99.90
2022-09-12T07:41:12.777Z,99.90
2022-09-12T07:43:39.776Z,99.90
2022-09-12T07:46:06.637Z,99.90
2022-09-12T07:48:33.881Z,99.90
2022-09-12T07:51:06.193Z,99.90
2022-09-12T07:53:35.256Z,99.90
2022-09-12T07:56:03.174Z,99.90
2022-09-12T07:58:30.615Z,99.90
2022-09-12T08:01:25.746Z,99.90
2022-09-12T08:03:58.171Z,99.90
2022-09-12T08:06:26.988Z,99.90
2022-09-12T08:08:56.128Z,99.90
2022-09-12T08:11:24.263Z,99.90
2022-09-12T08:13:55.424Z,99.90
2022-09-12T08:16:25.361Z,99.90
2022-09-12T08:18:52.116Z,99.90
2022-09-12T08:21:21.848Z,99.90
2022-09-12T08:23:52.802Z,99.90
2022-09-12T08:26:19.570Z,99.70
2022-09-12T08:28:46.913Z,95.70
2022-09-12T08:31:16.731Z,94.30
2022-09-12T08:33:44.061Z,97.30
2022-09-12T08:36:16.379Z,99.90
2022-09-12T08:38:45.189Z,99.10
2022-09-12T08:41:17.689Z,99.10
2022-09-12T08:43:57.068Z,98.80
2022-09-12T08:46:36.130Z,90.40
2022-09-12T08:49:04.301Z,94.10
2022-09-12T08:51:34.599Z,92.20
2022-09-12T08:54:04.617Z,87.30
2022-09-12T08:56:37.221Z,91.90
2022-09-12T08:59:03.895Z,92.20
2022-09-12T09:01:42.786Z,89.10
2022-09-12T09:04:50.269Z,91.90
2022-09-12T09:07:33.122Z,92.70
2022-09-12T09:10:19.609Z,89.00
2022-09-12T09:13:01.937Z,82.30
2022-09-12T09:15:31.396Z,88.50
2022-09-12T09:18:04.255Z,80.90
2022-09-12T09:20:36.326Z,65.80
2022-09-12T09:23:12.012Z,60.40
2022-09-12T09:25:58.145Z,63.10
2022-09-12T09:28:39.879Z,55.20
2022-09-12T09:31:16.262Z,60.90
2022-09-12T09:33:43.725Z,62.80
2022-09-12T09:36:49.438Z,59.60
2022-09-12T09:40:03.498Z,65.30
2022-09-12T09:42:54.748Z,63.30
2022-09-12T09:45:24.470Z,68.30
2022-09-12T09:48:10.243Z,50.00
2022-09-12T09:50:37.572Z,22.50
2022-09-12T09:53:09.208Z,24.70
2022-09-12T09:55:42.250Z,34.70
2022-09-12T09:58:08.951Z,36.70
2022-09-12T10:00:37.950Z,32.10
2022-09-12T10:03:23.686Z,16.80
2022-09-12T10:06:08.169Z,1.00
2022-09-12T10:08:37.633Z,1.00
2022-09-12T10:11:16.198Z,1.00
2022-09-12T10:13:53.228Z,1.00
2022-09-12T10:16:24.350Z,1.00
2022-09-12T10:18:52.851Z,3.30
2022-09-12T10:21:47.544Z,1.00
2022-09-12T10:24:28.578Z,1.00
2022-09-12T10:27:05.613Z,1.00
2022-09-12T10:29:36.183Z,1.00
2022-09-12T10:32:07.222Z,1.00
2022-09-12T10:34:38.200Z,1.00
2022-09-12T10:37:07.990Z,1.00
2022-09-12T10:39:36.322Z,1.00
2022-09-12T10:42:05.446Z,1.00
2022-09-12T10:44:35.375Z,1.00
2022-09-12T10:47:21.410Z,1.00
2022-09-12T10:49:48.149Z,1.00
2022-09-12T10:52:23.295Z,1.00
2022-09-12T10:54:53.621Z,1.00
2022-09-12T10:57:38.281Z,1.00
2022-09-12T11:00:18.026Z,1.00
2022-09-12T11:03:10.900Z,1.00
2022-09-12T11:06:00.533Z,1.00
2022-09-12T11:08:49.003Z,1.00
2022-09-12T11:11:45.778Z,1.00
2022-09-12T11:14:33.478Z,1.00
2022-09-12T11:17:12.874Z,1.00
2022-09-12T11:19:59.505Z,1.00
2022-09-12T11:22:38.107Z,1.00
2022-09-12T11:25:22.422Z,1.00
2022-09-12T11:28:00.715Z,1.00
2022-09-12T11:30:39.149Z,1.00
2022-09-12T11:33:25.000Z,1.00
2022-09-12T11:35:55.422Z,1.00
2022-09-12T11:38:25.503Z,1.00
2022-09-12T11:41:00.043Z,1.00
2022-09-12T11:43:58.776Z,1.00
2022-09-12T11:46:34.519Z,1.00
2022-09-12T11:49:40.152Z,1.00
2022-09-12T11:52:19.977Z,1.00
2022-09-12T11:55:05.428Z,1.00
2022-09-12T11:57:45.760Z,1.00
2022-09-12T12:00:22.944Z,1.00
2022-09-12T12:03:20.395Z,1.00
2022-09-12T12:05:55.949Z,1.00
2022-09-12T12:08:24.762Z,1.00
2022-09-12T12:10:56.402Z,1.00
2022-09-12T12:13:31.225Z,1.00
2022-09-12T12:16:22.059Z,1.00
2022-09-12T12:18:55.823Z,1.00
2022-09-12T12:21:50.861Z,1.00
2022-09-12T12:24:20.385Z,1.00
2022-09-12T12:26:59.913Z,1.00
2022-09-12T12:29:43.591Z,1.00
2022-09-12T12:32:10.873Z,1.00
2022-09-12T12:34:44.919Z,1.00
2022-09-12T12:37:40.316Z,1.00
2022-09-12T12:40:23.022Z,1.00
2022-09-12T12:42:50.526Z,1.00
2022-09-12T12:45:18.044Z,1.00
2022-09-12T12:47:57.453Z,1.00
2022-09-12T12:50:27.017Z,1.00
2022-09-12T12:53:14.900Z,1.00
2022-09-12T12:55:44.632Z,1.00
2022-09-12T12:58:36.315Z,1.00
2022-09-12T13:01:22.873Z,1.00
2022-09-12T13:03:58.165Z,1.00
2022-09-12T13:06:34.150Z,1.00
2022-09-12T13:09:19.630Z,1.00
2022-09-12T13:11:47.113Z,1.00
2022-09-12T13:14:51.847Z,1.00
2022-09-12T13:17:43.466Z,1.00
2022-09-12T13:20:29.448Z,1.00
2022-09-12T13:22:57.813Z,1.00
2022-09-12T13:25:31.817Z,1.00
2022-09-12T13:28:03.685Z,1.00
2022-09-12T13:30:36.730Z,1.00
2022-09-12T13:33:24.203Z,1.00
2022-09-12T13:36:09.993Z,1.00
2022-09-12T13:38:42.905Z,1.00
2022-09-12T13:41:33.851Z,1.00
2022-09-12T13:44:02.324Z,1.00
2022-09-12T13:46:32.457Z,1.00
2022-09-12T13:49:01.871Z,1.00
2022-09-12T13:51:31.491Z,1.00
2022-09-12T13:54:02.987Z,1.00
2022-09-12T13:56:29.928Z,1.00
2022-09-12T13:58:59.277Z,1.00
2022-09-12T14:01:41.595Z,1.00
2022-09-12T14:04:44.518Z,1.00
2022-09-12T14:07:17.327Z,1.00
2022-09-12T14:09:52.374Z,1.00
2022-09-12T14:12:36.566Z,1.00
2022-09-12T14:15:03.905Z,1.00
2022-09-12T14:17:36.332Z,1.00
2022-09-12T14:20:13.528Z,1.00
2022-09-12T14:22:41.588Z,1.00
2022-09-12T14:25:16.302Z,1.00
2022-09-12T14:27:51.204Z,1.00
2022-09-12T14:30:36.770Z,1.00
2022-09-12T14:33:10.969Z,1.00
2022-09-12T14:35:43.387Z,1.00
2022-09-12T14:38:17.344Z,1.00
2022-09-12T14:40:50.688Z,1.00
2022-09-12T14:43:25.144Z,1.00
2022-09-12T14:46:05.627Z,1.00
2022-09-12T14:48:37.715Z,1.00
2022-09-12T14:51:05.384Z,1.00
2022-09-12T14:53:34.918Z,1.00
2022-09-12T14:56:14.370Z,1.00
2022-09-12T14:58:41.746Z,1.00
2022-09-12T15:01:08.562Z,1.00
2022-09-12T15:03:36.836Z,1.00
2022-09-12T15:06:08.042Z,1.00
2022-09-12T15:08:34.887Z,1.00
2022-09-12T15:11:01.669Z,1.00
2022-09-12T15:13:30.763Z,1.00
2022-09-12T15:15:59.893Z,1.00
2022-09-12T15:18:28.745Z,1.00
2022-09-12T15:21:04.781Z,1.00
2022-09-12T15:23:36.288Z,6.10
2022-09-12T15:26:03.907Z,7.90
2022-09-12T15:28:31.843Z,4.60
2022-09-12T15:31:04.648Z,5.90
2022-09-12T15:33:31.347Z,7.50
2022-09-12T15:35:58.010Z,9.90
2022-09-12T15:38:26.682Z,12.70
2022-09-12T15:40:54.483Z,17.40
2022-09-12T15:43:22.545Z,22.00
2022-09-12T15:45:53.315Z,21.70
2022-09-12T15:48:21.106Z,24.80
2022-09-12T15:50:48.540Z,24.90
2022-09-12T15:53:16.896Z,25.00
2022-09-12T15:55:44.618Z,25.20
2022-09-12T15:58:11.819Z,26.60
2022-09-12T16:00:38.808Z,26.50
2022-09-12T16:03:05.648Z,26.20
2022-09-12T16:05:32.698Z,27.70
2022-09-12T16:07:59.528Z,27.90
2022-09-12T16:10:30.235Z,29.70
2022-09-12T16:12:57.613Z,29.20
2022-09-12T16:15:26.072Z,29.60
2022-09-12T16:17:53.336Z,29.70
2022-09-12T16:20:20.943Z,29.90
2022-09-12T16:22:48.136Z,31.00
2022-09-12T16:25:14.986Z,32.60
2022-09-12T16:27:41.770Z,35.50
2022-09-12T16:30:09.577Z,37.80
2022-09-12T16:32:37.010Z,40.60
2022-09-12T16:35:04.578Z,41.20
2022-09-12T16:37:32.294Z,43.80
2022-09-12T16:39:59.152Z,45.30
2022-09-12T16:42:25.962Z,45.90
2022-09-12T16:44:52.619Z,49.30
2022-09-12T16:47:19.810Z,51.60
2022-09-12T16:49:46.517Z,50.90
2022-09-12T16:52:16.468Z,53.10
2022-09-12T16:54:44.433Z,54.40
2022-09-12T16:57:11.861Z,57.30
2022-09-12T16:59:38.597Z,57.70
2022-09-12T17:02:05.425Z,58.70
2022-09-12T17:04:32.209Z,58.80
2022-09-12T17:06:59.522Z,62.90
2022-09-12T17:09:28.118Z,61.80
2022-09-12T17:11:55.491Z,62.00
2022-09-12T17:14:22.291Z,62.20
2022-09-12T17:16:51.826Z,61.80
2022-09-12T17:19:29.991Z,61.80
2022-09-12T17:21:57.355Z,64.50
2022-09-12T17:24:24.561Z,65.50
2022-09-12T17:26:53.590Z,63.50
2022-09-12T17:29:21.206Z,62.50
2022-09-12T17:31:49.271Z,62.90
2022-09-12T17:34:18.001Z,63.90
2022-09-12T17:36:46.362Z,65.40
2022-09-12T17:39:14.586Z,66.30
2022-09-12T17:41:43.184Z,67.80
2022-09-12T17:44:15.509Z,71.70
2022-09-12T17:46:43.518Z,76.40
2022-09-12T17:49:16.285Z,79.50
2022-09-12T17:51:44.345Z,80.60
2022-09-12T17:54:15.977Z,81.10
2022-09-12T17:56:45.683Z,80.60
2022-09-12T17:59:19.692Z,79.70
2022-09-12T18:02:05.958Z,78.20
2022-09-12T18:04:33.121Z,78.40
2022-09-12T18:07:00.800Z,80.20
2022-09-12T18:09:28.550Z,81.60
2022-09-12T18:11:55.611Z,82.30
2022-09-12T18:14:23.513Z,81.90
2022-09-12T18:16:51.029Z,82.80
2022-09-12T18:19:18.951Z,82.70
2022-09-12T18:21:47.250Z,82.90
2022-09-12T18:24:14.413Z,82.90
2022-09-12T18:26:43.986Z,83.10
2022-09-12T18:29:11.925Z,83.80
2022-09-12T18:31:39.249Z,83.60
2022-09-12T18:34:08.092Z,82.90
2022-09-12T18:36:35.028Z,85.00
2022-09-12T18:39:02.061Z,87.20
2022-09-12T18:41:29.422Z,87.90
2022-09-12T18:43:58.461Z,89.00
2022-09-12T18:46:26.639Z,89.50
2022-09-12T18:48:58.058Z,90.30
2022-09-12T18:51:31.830Z,91.30
2022-09-12T18:54:03.402Z,91.90
2022-09-12T18:56:33.300Z,92.20
2022-09-12T18:59:02.486Z,92.50
2022-09-12T19:01:32.319Z,92.40
2022-09-12T19:04:01.416Z,91.50
2022-09-12T19:06:35.402Z,91.70
2022-09-12T19:09:07.578Z,91.80
2022-09-12T19:11:37.307Z,92.90
2022-09-12T19:14:04.805Z,92.90
2022-09-12T19:16:31.987Z,93.30
2022-09-12T19:18:59.724Z,93.10
2022-09-12T19:21:29.071Z,93.30
2022-09-12T19:23:58.415Z,93.50
2022-09-12T19:26:26.026Z,94.20
2022-09-12T19:28:53.855Z,94.40
2022-09-12T19:31:21.833Z,93.80
2022-09-12T19:33:49.618Z,94.10
2022-09-12T19:36:43.348Z,94.00
2022-09-12T19:39:06.720Z,95.20
2022-09-12T19:41:33.561Z,95.40
2022-09-12T19:44:00.435Z,96.40
2022-09-12T19:46:27.868Z,96.30
2022-09-12T19:48:54.742Z,96.70
2022-09-12T19:51:22.443Z,96.60
2022-09-12T19:53:50.330Z,95.90
2022-09-12T19:56:17.307Z,96.10
2022-09-12T19:58:46.681Z,97.60
2022-09-12T20:01:18.168Z,96.80
2022-09-12T20:03:45.846Z,96.90
2022-09-12T20:06:15.873Z,98.10
2022-09-12T20:08:43.975Z,97.60
2022-09-12T20:11:13.107Z,98.00
2022-09-12T20:13:40.306Z,97.50
2022-09-12T20:16:15.014Z,97.80
2022-09-12T20:18:45.822Z,97.70
2022-09-12T20:21:19.898Z,98.10
2022-09-12T20:23:46.986Z,97.80
2022-09-12T20:26:14.010Z,97.70
2022-09-12T20:28:42.135Z,97.70
2022-09-12T20:31:14.874Z,98.20
2022-09-12T20:33:41.769Z,97.90
2022-09-12T20:36:12.231Z,98.00
2022-09-12T20:38:39.900Z,97.60
2022-09-12T20:41:08.297Z,97.70
2022-09-12T20:43:35.460Z,98.20
2022-09-12T20:46:10.346Z,98.40
2022-09-12T20:48:40.136Z,98.70
2022-09-12T20:51:07.311Z,98.60
2022-09-12T20:53:35.197Z,98.70
2022-09-12T20:56:03.008Z,98.20
2022-09-12T20:58:29.685Z,98.10
2022-09-12T21:00:56.786Z,98.20
2022-09-12T21:03:23.580Z,97.90
2022-09-12T21:05:50.213Z,97.70
2022-09-12T21:08:17.248Z,97.80
2022-09-12T21:10:44.540Z,98.00
2022-09-12T21:13:12.088Z,98.00
2022-09-12T21:15:40.266Z,98.80
2022-09-12T21:18:07.699Z,99.20
2022-09-12T21:20:34.774Z,98.70
2022-09-12T21:23:01.707Z,99.00
2022-09-12T21:25:29.183Z,98.80
2022-09-12T21:27:56.035Z,98.70
2022-09-12T21:30:22.941Z,99.20
2022-09-12T21:32:49.732Z,99.20
2022-09-12T21:35:16.663Z,99.60
2022-09-12T21:37:43.396Z,99.90
2022-09-12T21:40:10.487Z,99.90
2022-09-12T21:42:37.449Z,99.90
2022-09-12T21:45:04.558Z,99.90
2022-09-12T21:47:31.265Z,99.90
2022-09-12T21:49:58.484Z,99.90
2022-09-12T21:52:25.359Z,99.90
2022-09-12T21:54:52.070Z,99.90
2022-09-12T21:57:18.732Z,99.90
2022-09-12T21:59:45.580Z,99.90
2022-09-12T22:02:12.473Z,99.90
2022-09-12T22:04:39.341Z,99.90
2022-09-12T22:07:06.288Z,99.90
2022-09-12T22:09:34.407Z,99.90
2022-09-12T22:12:02.236Z,99.90
2022-09-12T22:14:29.518Z,99.90
2022-09-12T22:16:56.779Z,99.90
2022-09-12T22:19:23.561Z,99.90
2022-09-12T22:22:08.969Z,99.90
2022-09-12T22:24:35.767Z,99.90
2022-09-12T22:27:05.377Z,99.90
2022-09-12T22:29:32.912Z,99.90
2022-09-12T22:32:00.822Z,99.90
2022-09-12T22:34:28.739Z,99.90
2022-09-12T22:36:55.907Z,99.90
2022-09-12T22:39:23.532Z,99.90
2022-09-12T22:41:50.906Z,99.90
2022-09-12T22:44:17.871Z,99.90
2022-09-12T22:46:45.170Z,99.90
2022-09-12T22:49:12.793Z,99.90
2022-09-12T22:51:40.166Z,99.90
2022-09-12T22:54:09.024Z,99.90
2022-09-12T22:56:35.713Z,99.90
2022-09-12T22:59:02.537Z,99.90
2022-09-12T23:01:30.268Z,99.90
2022-09-12T23:04:16.506Z,99.90
2022-09-12T23:06:43.185Z,99.90
2022-09-12T23:09:09.868Z,99.90
2022-09-12T23:11:37.111Z,99.90
2022-09-12T23:14:03.786Z,99.90
2022-09-12T23:16:32.099Z,99.90
2022-09-12T23:18:58.932Z,99.90
2022-09-12T23:21:25.775Z,99.90
2022-09-12T23:23:52.593Z,99.90
2022-09-12T23:26:24.888Z,99.90
2022-09-12T23:28:53.931Z,99.90
2022-09-12T23:31:21.849Z,99.90
2022-09-12T23:33:50.100Z,99.90
2022-09-12T23:36:16.777Z,99.90
2022-09-12T23:38:45.337Z,99.90
2022-09-12T23:41:14.391Z,99.90
2022-09-12T23:43:42.923Z,99.90
2022-09-12T23:46:09.785Z,99.90
2022-09-12T23:48:36.600Z,99.90
2022-09-12T23:51:03.339Z,99.90
2022-09-12T23:53:30.151Z,99.90
2022-09-12T23:55:57.192Z,99.90
2022-09-12T23:58:24.055Z,99.90
